createdAt,value
2017-09-04T00:02:49.249Z,95.40
2017-09-04T00:07:52.449Z,95.40
2017-09-04T00:12:55.655Z,95.50
2017-09-04T00:17:58.872Z,94.70
2017-09-04T00:23:02.073Z,94.10
2017-09-04T00:28:05.272Z,94.20
2017-09-04T00:33:08.498Z,93.70
2017-09-04T00:38:11.681Z,93.60
2017-09-04T00:43:14.888Z,93.60
2017-09-04T00:48:18.097Z,93.60
2017-09-04T00:53:21.329Z,93.30
2017-09-04T00:58:24.666Z,93.20
2017-09-04T01:03:27.913Z,93.00
2017-09-04T01:08:31.081Z,92.50
2017-09-04T01:13:34.288Z,92.60
2017-09-04T01:18:37.517Z,92.30
2017-09-04T01:23:40.731Z,92.30
2017-09-04T01:28:43.947Z,92.40
2017-09-04T01:33:47.142Z,92.40
2017-09-04T01:38:50.344Z,93.30
2017-09-04T01:43:53.585Z,93.70
2017-09-04T01:48:56.797Z,94.00
2017-09-04T01:54:00.163Z,93.90
2017-09-04T01:59:03.377Z,95.20
2017-09-04T02:04:06.959Z,94.50
2017-09-04T02:09:10.181Z,95.30
2017-09-04T02:14:13.407Z,95.10
2017-09-04T02:19:16.716Z,95.00
2017-09-04T02:24:20.097Z,95.00
2017-09-04T02:29:23.373Z,95.30
2017-09-04T02:34:26.650Z,95.30
2017-09-04T02:39:29.959Z,95.50
2017-09-04T02:44:33.164Z,95.60
2017-09-04T02:49:36.347Z,95.90
2017-09-04T02:54:39.551Z,95.80
2017-09-04T02:59:42.764Z,95.50
2017-09-04T03:04:45.976Z,96.90
2017-09-04T03:09:49.215Z,96.90
2017-09-04T03:14:52.434Z,96.90
2017-09-04T03:19:55.676Z,96.90
2017-09-04T03:24:58.867Z,96.70
2017-09-04T03:30:02.306Z,96.50
2017-09-04T03:35:05.521Z,96.80
2017-09-04T03:40:08.797Z,97.40
2017-09-04T03:45:11.979Z,97.20
2017-09-04T03:50:15.176Z,98.10
2017-09-04T03:55:18.401Z,97.90
2017-09-04T04:00:21.612Z,97.90
2017-09-04T04:05:24.789Z,97.30
2017-09-04T04:10:27.953Z,98.90
2017-09-04T04:15:31.260Z,98.50
2017-09-04T04:20:34.456Z,98.80
2017-09-04T04:25:37.652Z,98.80
2017-09-04T04:30:40.838Z,98.90
2017-09-04T04:35:44.060Z,97.10
2017-09-04T04:40:47.262Z,97.80
2017-09-04T04:45:50.480Z,98.60
2017-09-04T04:50:53.734Z,98.70
2017-09-04T04:55:56.942Z,99.10
2017-09-04T05:01:00.158Z,99.20
2017-09-04T05:06:03.379Z,98.30
2017-09-04T05:11:06.607Z,97.40
2017-09-04T05:16:09.812Z,96.20
2017-09-04T05:21:13.033Z,95.70
2017-09-04T05:26:16.259Z,94.50
2017-09-04T05:31:19.499Z,93.70
2017-09-04T05:36:22.706Z,87.60
2017-09-04T05:41:26.049Z,85.10
2017-09-04T05:46:29.258Z,89.70
2017-09-04T05:51:32.494Z,91.20
2017-09-04T05:56:35.729Z,91.60
2017-09-04T06:01:38.926Z,92.80
2017-09-04T06:06:42.122Z,92.80
2017-09-04T06:11:45.400Z,90.30
2017-09-04T06:16:48.602Z,87.20
2017-09-04T06:21:51.810Z,86.00
2017-09-04T06:26:55.046Z,83.50
2017-09-04T06:31:58.250Z,81.10
2017-09-04T06:37:01.442Z,80.60
2017-09-04T06:42:04.658Z,79.30
2017-09-04T06:47:07.854Z,78.80
2017-09-04T06:52:11.062Z,80.20
2017-09-04T06:57:14.312Z,78.80
2017-09-04T07:02:17.530Z,81.40
2017-09-04T07:07:20.735Z,79.10
2017-09-04T07:12:23.935Z,78.70
2017-09-04T07:17:27.171Z,77.20
2017-09-04T07:22:30.386Z,78.90
2017-09-04T07:27:33.550Z,80.10
2017-09-04T07:32:36.787Z,78.90
2017-09-04T07:37:39.997Z,73.50
2017-09-04T07:42:43.230Z,70.90
2017-09-04T07:47:46.516Z,71.50
2017-09-04T07:52:49.731Z,71.20
2017-09-04T07:57:52.909Z,69.10
2017-09-04T08:02:56.144Z,68.30
2017-09-04T08:07:59.341Z,69.10
2017-09-04T08:13:02.549Z,70.90
2017-09-04T08:18:05.753Z,74.00
2017-09-04T08:23:08.988Z,73.90
2017-09-04T08:28:12.220Z,74.40
2017-09-04T08:33:15.437Z,72.50
2017-09-04T08:38:18.713Z,71.10
2017-09-04T08:43:21.964Z,70.40
2017-09-04T08:48:25.173Z,69.30
2017-09-04T08:53:28.440Z,69.40
2017-09-04T08:58:31.662Z,67.60
2017-09-04T09:03:34.898Z,64.80
2017-09-04T09:08:38.136Z,64.10
2017-09-04T09:13:41.320Z,63.10
2017-09-04T09:18:44.540Z,60.20
2017-09-04T09:23:47.750Z,56.90
2017-09-04T09:28:50.968Z,60.00
2017-09-04T09:33:54.203Z,64.30
2017-09-04T09:38:57.412Z,61.60
2017-09-04T09:44:00.626Z,61.30
2017-09-04T09:49:03.825Z,59.00
2017-09-04T09:54:07.069Z,60.50
2017-09-04T09:59:10.306Z,62.50
2017-09-04T10:04:13.527Z,63.00
2017-09-04T10:09:16.730Z,61.10
2017-09-04T10:14:19.946Z,59.30
2017-09-04T10:19:23.178Z,56.40
2017-09-04T10:24:26.405Z,57.20
2017-09-04T10:29:29.611Z,57.90
2017-09-04T10:34:32.833Z,57.60
2017-09-04T10:39:36.054Z,57.90
2017-09-04T10:44:39.256Z,57.40
2017-09-04T10:49:42.472Z,57.00
2017-09-04T10:54:45.670Z,57.10
2017-09-04T10:59:48.911Z,55.70
2017-09-04T11:04:52.124Z,54.80
2017-09-04T11:09:56.232Z,51.70
2017-09-04T11:14:59.429Z,54.60
2017-09-04T11:20:02.701Z,49.80
2017-09-04T11:25:05.882Z,49.80
2017-09-04T11:30:09.097Z,49.80
2017-09-04T11:35:12.292Z,50.70
2017-09-04T11:40:15.494Z,49.10
2017-09-04T11:45:18.735Z,51.40
2017-09-04T11:50:21.937Z,48.60
2017-09-04T11:55:25.198Z,49.70
2017-09-04T12:00:28.631Z,50.60
2017-09-04T12:05:31.837Z,49.70
2017-09-04T12:10:35.088Z,50.30
2017-09-04T12:15:38.303Z,50.80
2017-09-04T12:20:41.523Z,48.50
2017-09-04T12:25:44.835Z,48.30
2017-09-04T12:30:48.001Z,46.50
2017-09-04T12:35:51.226Z,48.10
2017-09-04T12:40:54.447Z,47.70
2017-09-04T12:45:57.661Z,48.70
2017-09-04T12:51:00.856Z,48.00
2017-09-04T12:56:04.105Z,47.80
2017-09-04T13:01:07.318Z,47.20
2017-09-04T13:06:10.518Z,45.80
2017-09-04T13:11:19.377Z,45.80
2017-09-04T13:16:28.178Z,44.60
2017-09-04T13:21:36.940Z,44.90
2017-09-04T13:26:45.675Z,45.10
2017-09-04T13:31:54.306Z,46.40
2017-09-04T13:37:03.085Z,42.50
2017-09-04T13:42:11.759Z,44.70
2017-09-04T14:03:36.549Z,44.50
2017-09-04T14:08:45.410Z,44.50
2017-09-04T14:13:54.037Z,44.50
2017-09-04T14:18:57.214Z,42.80
2017-09-04T14:24:00.428Z,43.90
2017-09-04T14:29:03.666Z,43.10
2017-09-04T14:34:06.875Z,45.10
2017-09-04T14:39:10.094Z,43.30
2017-09-04T14:44:15.277Z,42.90
2017-09-04T14:49:18.837Z,42.60
2017-09-04T14:54:22.043Z,42.00
2017-09-04T14:59:25.267Z,43.40
2017-09-04T15:04:28.491Z,44.30
2017-09-04T15:09:31.746Z,44.70
2017-09-04T15:14:35.277Z,46.10
2017-09-04T15:19:38.568Z,46.40
2017-09-04T15:24:41.773Z,47.50
2017-09-04T15:29:44.980Z,49.40
2017-09-04T15:34:48.192Z,50.50
2017-09-04T15:39:51.415Z,51.90
2017-09-04T15:44:54.625Z,52.10
2017-09-04T15:49:57.836Z,54.10
2017-09-04T15:55:01.054Z,54.40
2017-09-04T16:00:04.247Z,54.90
2017-09-04T16:05:07.456Z,55.20
2017-09-04T16:10:11.467Z,55.00
2017-09-04T16:15:17.520Z,55.20
2017-09-04T16:20:23.690Z,56.00
2017-09-04T16:25:28.158Z,56.20
2017-09-04T16:36:14.973Z,54.10
2017-09-04T16:41:19.017Z,53.60
2017-09-04T16:46:23.598Z,53.90
2017-09-04T16:51:32.172Z,54.10
2017-09-04T16:56:48.120Z,55.10
2017-09-04T17:01:51.450Z,56.90
2017-09-04T17:06:54.686Z,58.40
2017-09-04T17:12:09.590Z,59.30
2017-09-04T17:17:13.314Z,59.90
2017-09-04T17:22:17.191Z,60.40
2017-09-04T17:27:20.441Z,60.10
2017-09-04T17:32:23.661Z,59.50
2017-09-04T17:37:26.835Z,59.70
2017-09-04T17:42:30.075Z,59.30
2017-09-04T17:47:33.304Z,56.50
2017-09-04T17:52:36.512Z,55.30
2017-09-04T17:57:39.741Z,56.10
2017-09-04T18:02:43.008Z,57.60
2017-09-04T18:07:46.173Z,57.80
2017-09-04T18:12:49.367Z,58.80
2017-09-04T18:17:52.583Z,59.90
2017-09-04T18:22:55.755Z,60.40
2017-09-04T18:27:58.974Z,60.30
2017-09-04T18:33:02.170Z,61.00
2017-09-04T18:38:05.370Z,62.90
2017-09-04T18:43:08.612Z,64.00
2017-09-04T18:48:11.946Z,64.60
2017-09-04T18:53:15.238Z,64.70
2017-09-04T18:58:18.463Z,65.30
2017-09-04T19:03:21.683Z,64.40
2017-09-04T19:08:24.911Z,65.30
2017-09-04T19:13:28.168Z,65.80
2017-09-04T19:18:31.357Z,64.80
2017-09-04T19:23:34.604Z,64.70
2017-09-04T19:28:37.852Z,63.20
2017-09-04T19:33:41.115Z,63.00
2017-09-04T19:38:44.342Z,63.40
2017-09-04T19:43:47.550Z,62.60
2017-09-04T19:48:50.855Z,61.50
2017-09-04T19:53:54.135Z,61.10
2017-09-04T19:58:57.409Z,61.50
2017-09-04T20:04:00.671Z,61.30
2017-09-04T20:09:03.865Z,61.20
2017-09-04T20:14:07.096Z,61.60
2017-09-04T20:19:10.307Z,62.40
2017-09-04T20:24:13.525Z,63.00
2017-09-04T20:29:16.696Z,63.20
2017-09-04T20:34:19.912Z,64.20
2017-09-04T20:39:23.118Z,64.10
2017-09-04T20:44:26.335Z,64.10
2017-09-04T20:49:29.615Z,65.50
2017-09-04T20:54:32.841Z,65.30
2017-09-04T20:59:36.194Z,65.60
2017-09-04T21:04:39.608Z,67.00
2017-09-04T21:09:42.803Z,67.70
2017-09-04T21:14:46.030Z,68.00
2017-09-04T21:19:49.203Z,71.60
2017-09-04T21:24:52.429Z,69.10
2017-09-04T21:29:55.639Z,69.30
2017-09-04T21:34:58.959Z,70.60
2017-09-04T21:40:02.187Z,70.20
2017-09-04T21:45:05.441Z,70.00
2017-09-04T21:50:08.664Z,70.60
2017-09-04T21:55:11.899Z,70.20
2017-09-04T22:00:15.159Z,69.80
2017-09-04T22:05:18.384Z,71.20
2017-09-04T22:10:21.745Z,71.20
2017-09-04T22:15:24.956Z,70.80
2017-09-04T22:20:28.183Z,71.20
2017-09-04T22:25:31.365Z,71.70
2017-09-04T22:30:34.608Z,73.10
2017-09-04T22:35:37.837Z,73.20
2017-09-04T22:40:41.062Z,73.40
2017-09-04T22:45:44.291Z,74.40
2017-09-04T22:50:47.501Z,75.10
2017-09-04T22:55:50.843Z,75.10
2017-09-04T23:00:54.047Z,75.80
2017-09-04T23:05:57.268Z,75.90
2017-09-04T23:11:00.485Z,76.80
2017-09-04T23:16:03.701Z,74.10
2017-09-04T23:21:06.913Z,74.50
2017-09-04T23:26:10.143Z,75.60
2017-09-04T23:31:13.343Z,76.50
2017-09-04T23:36:16.611Z,77.60
2017-09-04T23:41:19.825Z,78.10
2017-09-04T23:46:23.047Z,77.40
2017-09-04T23:51:26.316Z,77.70
2017-09-04T23:56:29.525Z,77.90
